createdAt,value
2018-06-28T00:00:13.661Z,18.41
2018-06-28T00:01:13.654Z,18.42
2018-06-28T00:02:13.661Z,18.39
2018-06-28T00:03:13.652Z,18.29
2018-06-28T00:04:13.640Z,18.36
2018-06-28T00:05:13.646Z,18.39
2018-06-28T00:06:13.647Z,18.32
2018-06-28T00:07:13.634Z,18.31
2018-06-28T00:08:13.636Z,18.38
2018-06-28T00:09:13.620Z,18.31
2018-06-28T00:10:13.616Z,18.32
2018-06-28T00:11:13.615Z,18.38
2018-06-28T00:12:13.608Z,18.31
2018-06-28T00:13:13.606Z,18.31
2018-06-28T00:14:13.603Z,18.34
2018-06-28T00:15:13.598Z,18.38
2018-06-28T00:16:13.601Z,18.29
2018-06-28T00:17:13.589Z,18.31
2018-06-28T00:18:13.590Z,18.32
2018-06-28T00:19:13.581Z,18.25
2018-06-28T00:20:13.576Z,18.26
2018-06-28T00:21:13.640Z,18.17
2018-06-28T00:22:13.569Z,18.23
2018-06-28T00:23:13.575Z,18.17
2018-06-28T00:24:13.562Z,18.17
2018-06-28T00:25:13.561Z,18.09
2018-06-28T00:26:13.560Z,18.09
2018-06-28T00:27:13.559Z,18.07
2018-06-28T00:28:13.544Z,18.07
2018-06-28T00:29:13.543Z,18.05
2018-06-28T00:30:13.541Z,17.99
2018-06-28T00:31:13.542Z,18.01
2018-06-28T00:32:13.529Z,17.96
2018-06-28T00:33:13.523Z,17.99
2018-06-28T00:34:13.528Z,17.94
2018-06-28T00:35:13.527Z,17.96
2018-06-28T00:36:13.515Z,17.91
2018-06-28T00:37:13.507Z,17.91
2018-06-28T00:38:13.507Z,17.89
2018-06-28T00:39:13.505Z,17.99
2018-06-28T00:40:13.495Z,17.94
2018-06-28T00:41:13.500Z,17.94
2018-06-28T00:42:13.487Z,17.94
2018-06-28T00:43:13.492Z,17.98
2018-06-28T00:44:13.479Z,17.95
2018-06-28T00:45:13.474Z,17.92
2018-06-28T00:46:13.471Z,17.92
2018-06-28T00:47:13.471Z,17.87
2018-06-28T00:48:13.470Z,17.83
2018-06-28T00:49:13.467Z,17.91
2018-06-28T00:50:13.452Z,17.92
2018-06-28T00:51:13.455Z,17.76
2018-06-28T00:52:13.446Z,17.80
2018-06-28T00:53:13.446Z,17.83
2018-06-28T00:54:13.438Z,17.84
2018-06-28T00:55:13.443Z,17.77
2018-06-28T00:56:13.443Z,17.81
2018-06-28T00:57:13.423Z,17.76
2018-06-28T00:58:13.428Z,17.62
2018-06-28T00:59:13.415Z,17.74
2018-06-28T01:00:13.417Z,17.70
2018-06-28T01:01:13.420Z,17.74
2018-06-28T01:02:13.412Z,17.63
2018-06-28T01:03:13.404Z,17.58
2018-06-28T01:04:13.400Z,17.55
2018-06-28T01:05:13.403Z,17.51
2018-06-28T01:06:13.388Z,17.43
2018-06-28T01:07:13.402Z,17.49
2018-06-28T01:08:13.382Z,17.51
2018-06-28T01:09:13.374Z,17.47
2018-06-28T01:10:13.372Z,17.46
2018-06-28T01:11:13.366Z,17.40
2018-06-28T01:12:13.372Z,17.39
2018-06-28T01:13:13.359Z,17.32
2018-06-28T01:14:13.353Z,17.40
2018-06-28T01:15:13.358Z,17.43
2018-06-28T01:16:13.344Z,17.42
2018-06-28T01:17:13.340Z,17.32
2018-06-28T01:18:13.336Z,17.39
2018-06-28T01:19:13.345Z,17.40
2018-06-28T01:20:13.341Z,17.53
2018-06-28T01:21:13.324Z,17.54
2018-06-28T01:22:13.326Z,17.42
2018-06-28T01:23:13.323Z,17.43
2018-06-28T01:24:13.324Z,17.39
2018-06-28T01:25:13.322Z,17.38
2018-06-28T01:26:13.307Z,17.42
2018-06-28T01:27:13.310Z,17.28
2018-06-28T01:28:13.291Z,17.43
2018-06-28T01:29:13.301Z,17.42
2018-06-28T01:30:13.283Z,17.28
2018-06-28T01:31:13.278Z,17.24
2018-06-28T01:32:13.276Z,17.35
2018-06-28T01:33:13.269Z,17.35
2018-06-28T01:34:13.267Z,17.27
2018-06-28T01:35:13.265Z,17.28
2018-06-28T01:36:13.257Z,17.25
2018-06-28T01:37:13.250Z,17.30
2018-06-28T01:38:13.256Z,17.27
2018-06-28T01:39:13.248Z,17.21
2018-06-28T01:40:13.240Z,17.09
2018-06-28T01:41:13.232Z,17.17
2018-06-28T01:42:13.228Z,17.10
2018-06-28T01:43:13.230Z,17.05
2018-06-28T01:44:13.218Z,17.12
2018-06-28T01:45:13.215Z,17.14
2018-06-28T01:46:13.214Z,17.09
2018-06-28T01:47:13.205Z,17.12
2018-06-28T01:48:13.201Z,17.18
2018-06-28T01:49:13.203Z,17.17
2018-06-28T01:50:13.192Z,17.22
2018-06-28T01:51:13.191Z,17.28
2018-06-28T01:52:13.189Z,17.24
2018-06-28T01:53:13.185Z,17.32
2018-06-28T01:54:13.173Z,17.21
2018-06-28T01:55:13.175Z,17.25
2018-06-28T01:56:13.161Z,17.18
2018-06-28T01:57:13.162Z,17.18
2018-06-28T01:58:13.153Z,17.24
2018-06-28T01:59:13.156Z,17.32
2018-06-28T02:00:13.141Z,17.33
2018-06-28T02:01:13.140Z,17.30
2018-06-28T02:02:13.136Z,17.27
2018-06-28T02:03:13.128Z,17.30
2018-06-28T02:04:13.121Z,17.21
2018-06-28T02:05:13.116Z,17.33
2018-06-28T02:06:13.116Z,17.25
2018-06-28T02:07:13.114Z,17.27
2018-06-28T02:08:13.102Z,17.22
2018-06-28T02:09:13.098Z,17.17
2018-06-28T02:10:13.098Z,17.21
2018-06-28T02:11:13.096Z,17.27
2018-06-28T02:12:13.082Z,17.21
2018-06-28T02:13:13.078Z,17.14
2018-06-28T02:14:13.080Z,17.17
2018-06-28T02:15:13.073Z,17.20
2018-06-28T02:16:13.064Z,17.05
2018-06-28T02:17:13.067Z,17.10
2018-06-28T02:18:13.053Z,17.14
2018-06-28T02:19:13.062Z,17.03
2018-06-28T02:20:13.047Z,16.99
2018-06-28T02:21:13.041Z,17.00
2018-06-28T02:22:13.038Z,16.99
2018-06-28T02:23:13.032Z,17.02
2018-06-28T02:24:13.021Z,16.90
2018-06-28T02:25:13.020Z,16.95
2018-06-28T02:26:13.012Z,16.91
2018-06-28T02:27:13.016Z,16.98
2018-06-28T02:28:13.001Z,16.90
2018-06-28T02:29:13.004Z,16.91
2018-06-28T02:30:12.991Z,16.92
2018-06-28T02:31:12.987Z,16.90
2018-06-28T02:32:12.979Z,16.85
2018-06-28T02:33:12.974Z,16.81
2018-06-28T02:34:12.971Z,16.80
2018-06-28T02:35:12.963Z,16.78
2018-06-28T02:36:12.958Z,16.80
2018-06-28T02:37:12.960Z,16.70
2018-06-28T02:38:12.949Z,16.72
2018-06-28T02:39:12.948Z,16.62
2018-06-28T02:40:12.938Z,16.63
2018-06-28T02:41:12.933Z,16.62
2018-06-28T02:42:12.928Z,16.66
2018-06-28T02:43:12.931Z,16.66
2018-06-28T02:44:12.926Z,16.57
2018-06-28T02:45:12.912Z,16.54
2018-06-28T02:46:12.915Z,16.60
2018-06-28T02:47:12.906Z,16.62
2018-06-28T02:48:12.896Z,16.59
2018-06-28T02:49:12.898Z,16.57
2018-06-28T02:50:12.898Z,16.50
2018-06-28T02:51:12.886Z,16.60
2018-06-28T02:52:12.875Z,16.51
2018-06-28T02:53:12.867Z,16.51
2018-06-28T02:54:12.866Z,16.50
2018-06-28T02:55:12.859Z,16.55
2018-06-28T02:56:12.856Z,16.52
2018-06-28T02:57:12.860Z,16.44
2018-06-28T02:58:12.846Z,16.59
2018-06-28T02:59:12.838Z,16.54
2018-06-28T03:00:12.842Z,16.52
2018-06-28T03:01:12.826Z,16.54
2018-06-28T03:02:12.830Z,16.51
2018-06-28T03:03:12.825Z,16.47
2018-06-28T03:04:12.810Z,16.48
2018-06-28T03:05:12.805Z,16.50
2018-06-28T03:06:12.800Z,16.50
2018-06-28T03:07:12.796Z,16.45
2018-06-28T03:08:12.793Z,16.41
2018-06-28T03:09:12.791Z,16.41
2018-06-28T03:10:12.822Z,16.27
2018-06-28T03:11:12.787Z,16.33
2018-06-28T03:12:12.779Z,16.36
2018-06-28T03:13:12.764Z,16.44
2018-06-28T03:14:12.760Z,16.37
2018-06-28T03:15:12.761Z,16.40
2018-06-28T03:16:12.753Z,16.40
2018-06-28T03:17:12.743Z,16.42
2018-06-28T03:18:12.746Z,16.44
2018-06-28T03:19:12.731Z,16.36
2018-06-28T03:20:12.734Z,16.37
2018-06-28T03:21:12.732Z,16.40
2018-06-28T03:22:12.717Z,16.37
2018-06-28T03:23:12.715Z,16.29
2018-06-28T03:24:12.714Z,16.27
2018-06-28T03:25:12.709Z,16.26
2018-06-28T03:26:12.702Z,16.26
2018-06-28T03:27:12.690Z,16.30
2018-06-28T03:28:12.689Z,16.30
2018-06-28T03:29:12.679Z,16.42
2018-06-28T03:30:12.676Z,16.36
2018-06-28T03:31:12.670Z,16.37
2018-06-28T03:32:12.671Z,16.42
2018-06-28T03:33:12.664Z,16.36
2018-06-28T03:34:12.654Z,16.36
2018-06-28T03:35:12.650Z,16.36
2018-06-28T03:36:12.649Z,16.26
2018-06-28T03:37:12.643Z,16.45
2018-06-28T03:38:12.633Z,16.37
2018-06-28T03:39:12.627Z,16.32
2018-06-28T03:40:12.622Z,16.29
2018-06-28T03:41:12.619Z,16.26
2018-06-28T03:42:12.619Z,16.14
2018-06-28T03:43:12.607Z,16.18
2018-06-28T03:44:12.616Z,16.22
2018-06-28T03:45:12.596Z,16.34
2018-06-28T03:46:12.593Z,16.41
2018-06-28T03:47:12.587Z,16.27
2018-06-28T03:48:12.585Z,16.36
2018-06-28T03:49:12.577Z,16.33
2018-06-28T03:50:12.573Z,16.40
2018-06-28T03:51:12.565Z,16.36
2018-06-28T03:52:12.561Z,16.40
2018-06-28T03:53:12.565Z,16.36
2018-06-28T03:54:12.560Z,16.30
2018-06-28T03:55:12.547Z,16.27
2018-06-28T03:56:12.543Z,16.29
2018-06-28T03:57:12.535Z,16.22
2018-06-28T03:58:12.531Z,16.14
2018-06-28T03:59:12.539Z,15.93
2018-06-28T04:00:12.519Z,15.96
2018-06-28T04:01:12.515Z,16.03
2018-06-28T04:02:12.512Z,15.98
2018-06-28T04:03:12.519Z,15.99
2018-06-28T04:04:12.501Z,16.08
2018-06-28T04:05:12.500Z,16.03
2018-06-28T04:06:12.490Z,16.04
2018-06-28T04:07:12.491Z,16.14
2018-06-28T04:08:12.494Z,16.10
2018-06-28T04:09:12.480Z,16.08
2018-06-28T04:10:12.471Z,16.07
2018-06-28T04:11:12.465Z,15.98
2018-06-28T04:12:12.464Z,15.96
2018-06-28T04:13:12.454Z,16.04
2018-06-28T04:14:12.457Z,16.08
2018-06-28T04:15:12.449Z,16.16
2018-06-28T04:16:12.438Z,16.18
2018-06-28T04:17:12.443Z,16.13
2018-06-28T04:18:12.443Z,16.07
2018-06-28T04:19:12.430Z,16.01
2018-06-28T04:20:12.426Z,16.16
2018-06-28T04:21:12.414Z,16.82
2018-06-28T04:22:12.416Z,18.10
2018-06-28T04:23:12.409Z,19.10
2018-06-28T04:24:12.399Z,19.89
2018-06-28T04:25:12.398Z,20.73
2018-06-28T04:26:12.388Z,21.36
2018-06-28T04:27:12.387Z,21.66
2018-06-28T04:28:12.387Z,21.98
2018-06-28T04:29:12.427Z,22.24
2018-06-28T04:30:12.383Z,22.63
2018-06-28T04:31:12.373Z,22.96
2018-06-28T04:32:12.375Z,23.18
2018-06-28T04:33:12.432Z,23.35
2018-06-28T04:34:12.369Z,23.60
2018-06-28T04:35:12.368Z,23.78
2018-06-28T04:36:12.372Z,23.74
2018-06-28T04:37:12.375Z,23.75
2018-06-28T04:38:12.373Z,23.79
2018-06-28T04:39:12.372Z,23.60
2018-06-28T04:40:12.362Z,24.02
2018-06-28T04:41:12.368Z,24.31
2018-06-28T04:42:12.373Z,24.36
2018-06-28T04:43:12.374Z,24.39
2018-06-28T04:44:12.368Z,24.66
2018-06-28T04:45:12.368Z,24.59
2018-06-28T04:46:12.372Z,24.26
2018-06-28T04:47:12.373Z,24.60
2018-06-28T04:48:12.384Z,24.67
2018-06-28T04:49:12.382Z,24.79
2018-06-28T04:50:12.394Z,24.80
2018-06-28T04:51:12.387Z,24.80
2018-06-28T04:52:12.389Z,24.90
2018-06-28T04:53:12.401Z,24.98
2018-06-28T04:54:12.411Z,24.93
2018-06-28T04:55:12.405Z,24.93
2018-06-28T04:56:12.408Z,24.74
2018-06-28T04:57:12.415Z,24.70
2018-06-28T04:58:12.415Z,24.92
2018-06-28T04:59:12.418Z,25.02
2018-06-28T05:00:12.422Z,24.99
2018-06-28T05:01:12.445Z,24.68
2018-06-28T05:02:12.437Z,24.74
2018-06-28T05:03:12.436Z,24.70
2018-06-28T05:04:12.447Z,24.56
2018-06-28T05:05:12.446Z,24.66
2018-06-28T05:06:12.453Z,24.75
2018-06-28T05:07:12.467Z,24.93
2018-06-28T05:08:12.464Z,25.04
2018-06-28T05:09:12.476Z,25.07
2018-06-28T05:10:12.478Z,25.23
2018-06-28T05:11:12.489Z,25.08
2018-06-28T05:12:12.485Z,25.24
2018-06-28T05:13:12.501Z,25.24
2018-06-28T05:14:12.500Z,25.64
2018-06-28T05:15:12.514Z,25.71
2018-06-28T05:16:12.510Z,25.63
2018-06-28T05:17:12.587Z,25.71
2018-06-28T05:18:12.521Z,25.27
2018-06-28T05:19:12.530Z,25.23
2018-06-28T05:20:12.531Z,25.22
2018-06-28T05:21:12.544Z,25.12
2018-06-28T05:22:12.539Z,24.86
2018-06-28T05:23:12.549Z,24.55
2018-06-28T05:24:12.548Z,24.59
2018-06-28T05:25:12.550Z,24.56
2018-06-28T05:26:12.555Z,24.21
2018-06-28T05:27:12.568Z,23.77
2018-06-28T05:28:12.569Z,23.34
2018-06-28T05:29:12.598Z,23.18
2018-06-28T05:30:12.565Z,22.70
2018-06-28T05:31:12.569Z,22.81
2018-06-28T05:32:12.579Z,22.52
2018-06-28T05:33:12.571Z,22.20
2018-06-28T05:34:12.573Z,21.74
2018-06-28T05:35:12.579Z,21.53
2018-06-28T05:36:12.583Z,21.52
2018-06-28T05:37:12.575Z,21.53
2018-06-28T05:38:12.577Z,21.48
2018-06-28T05:39:12.576Z,21.24
2018-06-28T05:40:12.577Z,21.05
2018-06-28T05:41:12.590Z,20.91
2018-06-28T05:42:12.581Z,20.68
2018-06-28T05:43:12.576Z,20.44
2018-06-28T05:44:12.578Z,20.33
2018-06-28T05:45:12.609Z,20.48
2018-06-28T05:46:12.583Z,20.51
2018-06-28T05:47:12.632Z,20.63
2018-06-28T05:48:12.578Z,20.72
2018-06-28T05:49:12.583Z,20.78
2018-06-28T05:50:12.586Z,20.50
2018-06-28T05:51:12.575Z,20.54
2018-06-28T05:52:12.574Z,20.53
2018-06-28T05:53:12.588Z,20.46
2018-06-28T05:54:12.620Z,20.63
2018-06-28T05:55:12.580Z,20.66
2018-06-28T05:56:12.568Z,20.58
2018-06-28T05:57:12.571Z,20.68
2018-06-28T05:58:12.566Z,20.64
2018-06-28T05:59:12.567Z,20.48
2018-06-28T06:00:12.567Z,20.51
2018-06-28T06:01:12.563Z,20.48
2018-06-28T06:02:12.562Z,20.64
2018-06-28T06:03:12.569Z,20.63
2018-06-28T06:04:12.565Z,20.50
2018-06-28T06:05:12.563Z,20.46
2018-06-28T06:06:12.557Z,20.34
2018-06-28T06:07:12.563Z,20.19
2018-06-28T06:08:12.557Z,20.26
2018-06-28T06:09:12.554Z,20.26
2018-06-28T06:10:12.592Z,20.12
2018-06-28T06:11:12.547Z,20.01
2018-06-28T06:12:12.550Z,19.97
2018-06-28T06:13:12.544Z,19.92
2018-06-28T06:14:12.567Z,19.90
2018-06-28T06:15:12.540Z,20.02
2018-06-28T06:16:12.547Z,20.08
2018-06-28T06:17:12.548Z,20.17
2018-06-28T06:18:12.538Z,20.19
2018-06-28T06:19:12.543Z,20.22
2018-06-28T06:20:12.544Z,20.20
2018-06-28T06:21:12.539Z,20.31
2018-06-28T06:22:12.529Z,20.38
2018-06-28T06:23:12.524Z,20.31
2018-06-28T06:24:12.526Z,20.34
2018-06-28T06:25:12.524Z,20.50
2018-06-28T06:26:12.528Z,20.50
2018-06-28T06:27:12.519Z,20.37
2018-06-28T06:28:12.519Z,20.33
2018-06-28T06:29:12.522Z,20.33
2018-06-28T06:30:12.517Z,20.33
2018-06-28T06:31:12.513Z,20.22
2018-06-28T06:32:12.506Z,20.20
2018-06-28T06:33:12.504Z,20.17
2018-06-28T06:34:12.509Z,20.20
2018-06-28T06:35:12.506Z,20.17
2018-06-28T06:36:12.545Z,20.20
2018-06-28T06:37:12.497Z,20.19
2018-06-28T06:38:12.500Z,20.25
2018-06-28T06:39:12.500Z,20.25
2018-06-28T06:40:12.490Z,20.23
2018-06-28T06:41:12.496Z,20.20
2018-06-28T06:42:12.494Z,20.17
2018-06-28T06:43:12.484Z,20.10
2018-06-28T06:44:12.482Z,20.15
2018-06-28T06:45:12.481Z,20.19
2018-06-28T06:46:12.490Z,20.05
2018-06-28T06:47:12.483Z,19.86
2018-06-28T06:48:12.482Z,19.86
2018-06-28T06:49:12.471Z,19.86
2018-06-28T06:50:12.477Z,20.01
2018-06-28T06:51:12.466Z,20.01
2018-06-28T06:52:12.469Z,20.02
2018-06-28T06:53:12.469Z,20.07
2018-06-28T06:54:12.460Z,19.92
2018-06-28T06:55:12.467Z,19.92
2018-06-28T06:56:12.459Z,19.90
2018-06-28T06:57:12.450Z,20.07
2018-06-28T06:58:12.449Z,20.05
2018-06-28T06:59:12.447Z,20.01
2018-06-28T07:00:12.445Z,19.90
2018-06-28T07:01:12.453Z,19.94
2018-06-28T07:02:12.447Z,20.08
2018-06-28T07:03:12.439Z,19.89
2018-06-28T07:04:12.443Z,20.02
2018-06-28T07:05:12.441Z,20.04
2018-06-28T07:06:12.436Z,20.16
2018-06-28T07:07:12.429Z,20.27
2018-06-28T07:08:12.438Z,20.30
2018-06-28T07:09:12.437Z,20.20
2018-06-28T07:10:12.434Z,20.33
2018-06-28T07:11:12.424Z,20.33
2018-06-28T07:12:12.416Z,20.37
2018-06-28T07:13:12.423Z,20.38
2018-06-28T07:14:12.418Z,20.40
2018-06-28T07:15:12.423Z,20.37
2018-06-28T07:16:12.406Z,20.33
2018-06-28T07:17:12.404Z,20.31
2018-06-28T07:18:12.406Z,20.41
2018-06-28T07:19:12.401Z,20.31
2018-06-28T07:20:12.396Z,20.26
2018-06-28T07:21:12.395Z,20.30
2018-06-28T07:22:12.391Z,20.48
2018-06-28T07:23:12.389Z,20.64
2018-06-28T07:24:12.388Z,20.76
2018-06-28T07:25:12.388Z,20.87
2018-06-28T07:26:12.391Z,20.93
2018-06-28T07:27:12.380Z,20.87
2018-06-28T07:28:12.379Z,20.88
2018-06-28T07:29:12.377Z,20.76
2018-06-28T07:30:12.378Z,20.61
2018-06-28T07:31:12.373Z,20.63
2018-06-28T07:32:12.367Z,20.64
2018-06-28T07:33:12.421Z,20.73
2018-06-28T07:34:12.502Z,20.91
2018-06-28T07:35:12.363Z,20.94
2018-06-28T07:36:12.360Z,20.97
2018-06-28T07:37:12.371Z,21.01
2018-06-28T07:38:12.447Z,21.08
2018-06-28T07:39:12.352Z,21.03
2018-06-28T07:40:12.354Z,20.98
2018-06-28T07:41:12.349Z,21.09
2018-06-28T07:42:12.348Z,21.00
2018-06-28T07:43:12.344Z,21.00
2018-06-28T07:44:12.342Z,21.03
2018-06-28T07:45:12.347Z,21.01
2018-06-28T07:46:12.347Z,21.08
2018-06-28T07:47:12.338Z,20.97
2018-06-28T07:48:12.334Z,20.94
2018-06-28T07:49:12.345Z,20.93
2018-06-28T07:50:12.333Z,20.88
2018-06-28T07:51:12.332Z,20.94
2018-06-28T07:52:12.327Z,20.96
2018-06-28T07:53:12.332Z,20.90
2018-06-28T07:54:12.322Z,21.01
2018-06-28T07:55:12.325Z,21.06
2018-06-28T07:56:12.326Z,21.13
2018-06-28T07:57:12.315Z,21.15
2018-06-28T07:58:12.322Z,21.19
2018-06-28T07:59:12.312Z,21.31
2018-06-28T08:00:12.310Z,21.34
2018-06-28T08:01:12.306Z,21.45
2018-06-28T08:02:12.316Z,21.40
2018-06-28T08:03:12.308Z,21.53
2018-06-28T08:04:12.305Z,21.66
2018-06-28T08:05:12.299Z,21.59
2018-06-28T08:06:12.298Z,21.49
2018-06-28T08:07:12.304Z,21.33
2018-06-28T08:08:12.294Z,21.27
2018-06-28T08:09:12.307Z,21.18
2018-06-28T08:10:12.502Z,21.13
2018-06-28T08:11:12.291Z,21.22
2018-06-28T08:12:12.293Z,21.18
2018-06-28T08:13:12.284Z,21.37
2018-06-28T08:14:12.285Z,21.43
2018-06-28T08:15:12.284Z,21.49
2018-06-28T08:16:12.278Z,21.49
2018-06-28T08:17:12.276Z,21.61
2018-06-28T08:18:12.273Z,21.58
2018-06-28T08:19:12.271Z,21.67
2018-06-28T08:20:12.269Z,21.70
2018-06-28T08:21:12.271Z,21.85
2018-06-28T08:22:12.266Z,21.81
2018-06-28T08:23:12.268Z,21.93
2018-06-28T08:24:12.277Z,21.86
2018-06-28T08:25:12.265Z,21.85
2018-06-28T08:26:12.279Z,21.96
2018-06-28T08:27:12.257Z,22.01
2018-06-28T08:28:12.295Z,21.99
2018-06-28T08:29:12.254Z,21.98
2018-06-28T08:30:12.261Z,22.05
2018-06-28T08:31:12.252Z,22.14
2018-06-28T08:32:12.249Z,22.15
2018-06-28T08:33:12.258Z,22.24
2018-06-28T08:34:12.254Z,22.17
2018-06-28T08:35:12.245Z,22.04
2018-06-28T08:36:12.299Z,21.96
2018-06-28T08:37:12.245Z,22.11
2018-06-28T08:38:12.239Z,22.08
2018-06-28T08:39:12.238Z,22.01
2018-06-28T08:40:12.236Z,21.99
2018-06-28T08:41:12.241Z,22.15
2018-06-28T08:42:12.237Z,22.14
2018-06-28T08:43:12.253Z,22.19
2018-06-28T08:44:12.232Z,22.17
2018-06-28T08:45:12.230Z,22.20
2018-06-28T08:46:12.235Z,22.30
2018-06-28T08:47:12.230Z,22.24
2018-06-28T08:48:12.230Z,22.30
2018-06-28T08:49:12.224Z,22.23
2018-06-28T08:50:12.234Z,22.27
2018-06-28T08:51:12.222Z,22.24
2018-06-28T08:52:12.218Z,22.38
2018-06-28T08:53:12.232Z,22.33
2018-06-28T08:54:12.219Z,22.39
2018-06-28T08:55:12.216Z,22.48
2018-06-28T08:56:12.214Z,22.59
2018-06-28T08:57:12.215Z,22.66
2018-06-28T08:58:12.246Z,22.66
2018-06-28T08:59:12.212Z,22.49
2018-06-28T09:00:12.208Z,22.30
2018-06-28T09:01:12.221Z,22.45
2018-06-28T09:02:12.221Z,22.42
2018-06-28T09:03:12.212Z,22.60
2018-06-28T09:04:12.214Z,22.57
2018-06-28T09:05:12.209Z,22.74
2018-06-28T09:06:12.203Z,22.82
2018-06-28T09:07:12.203Z,22.76
2018-06-28T09:08:12.203Z,22.70
2018-06-28T09:09:12.198Z,22.64
2018-06-28T09:10:12.203Z,22.69
2018-06-28T09:11:12.200Z,22.69
2018-06-28T09:12:12.205Z,22.74
2018-06-28T09:13:12.203Z,22.72
2018-06-28T09:14:12.194Z,22.93
2018-06-28T09:15:12.258Z,22.79
2018-06-28T09:16:12.196Z,22.76
2018-06-28T09:17:12.200Z,22.82
2018-06-28T09:18:12.198Z,22.88
2018-06-28T09:19:12.201Z,23.04
2018-06-28T09:20:12.189Z,22.99
2018-06-28T09:21:12.188Z,23.00
2018-06-28T09:22:12.186Z,22.96
2018-06-28T09:23:12.198Z,23.06
2018-06-28T09:24:12.194Z,23.14
2018-06-28T09:25:12.183Z,23.06
2018-06-28T09:26:12.184Z,23.00
2018-06-28T09:27:12.183Z,22.94
2018-06-28T09:28:12.182Z,22.76
2018-06-28T09:29:12.188Z,22.88
2018-06-28T09:30:12.179Z,22.99
2018-06-28T09:31:12.184Z,23.01
2018-06-28T09:32:12.181Z,22.99
2018-06-28T09:33:12.177Z,22.79
2018-06-28T09:34:12.189Z,22.81
2018-06-28T09:35:12.177Z,22.96
2018-06-28T09:36:12.175Z,22.96
2018-06-28T09:37:12.182Z,22.97
2018-06-28T09:38:12.189Z,22.88
2018-06-28T09:39:12.185Z,22.89
2018-06-28T09:40:12.176Z,22.84
2018-06-28T09:41:12.177Z,22.88
2018-06-28T09:42:12.171Z,22.82
2018-06-28T09:43:12.170Z,22.85
2018-06-28T09:44:12.169Z,22.76
2018-06-28T09:45:12.169Z,22.85
2018-06-28T09:46:12.172Z,22.84
2018-06-28T09:47:12.166Z,22.86
2018-06-28T09:48:12.166Z,22.93
2018-06-28T09:49:12.167Z,22.99
2018-06-28T09:50:12.169Z,22.96
2018-06-28T09:51:12.163Z,22.72
2018-06-28T09:52:12.166Z,22.59
2018-06-28T09:53:12.161Z,22.51
2018-06-28T09:54:12.169Z,22.48
2018-06-28T09:55:12.159Z,22.39
2018-06-28T09:56:12.159Z,22.51
2018-06-28T09:57:12.169Z,22.44
2018-06-28T09:58:12.169Z,22.52
2018-06-28T09:59:12.158Z,22.69
2018-06-28T10:00:12.168Z,22.85
2018-06-28T10:01:12.164Z,22.93
2018-06-28T10:02:12.157Z,22.76
2018-06-28T10:03:12.160Z,22.67
2018-06-28T10:04:12.152Z,22.69
2018-06-28T10:05:12.150Z,22.69
2018-06-28T10:06:12.163Z,22.76
2018-06-28T10:07:12.153Z,22.74
2018-06-28T10:08:12.153Z,22.67
2018-06-28T10:09:12.154Z,22.74
2018-06-28T10:10:12.144Z,22.70
2018-06-28T10:11:12.144Z,22.88
2018-06-28T10:12:12.141Z,22.81
2018-06-28T10:13:12.270Z,22.84
2018-06-28T10:14:12.150Z,22.74
2018-06-28T10:15:12.153Z,22.61
2018-06-28T10:16:12.137Z,22.44
2018-06-28T10:17:12.149Z,22.57
2018-06-28T10:18:12.319Z,22.48
2018-06-28T10:19:12.138Z,22.46
2018-06-28T10:20:12.144Z,22.48
2018-06-28T10:21:12.148Z,22.39
2018-06-28T10:22:12.140Z,22.36
2018-06-28T10:23:12.141Z,22.38
2018-06-28T10:24:12.129Z,22.45
2018-06-28T10:25:12.133Z,22.54
2018-06-28T10:26:12.136Z,22.64
2018-06-28T10:27:12.127Z,22.59
2018-06-28T10:28:12.129Z,22.59
2018-06-28T10:29:12.125Z,22.61
2018-06-28T10:30:12.124Z,22.59
2018-06-28T10:31:12.129Z,22.56
2018-06-28T10:32:12.120Z,22.54
2018-06-28T10:33:12.123Z,22.59
2018-06-28T10:34:12.118Z,22.66
2018-06-28T10:35:12.125Z,22.82
2018-06-28T10:36:12.118Z,22.91
2018-06-28T10:37:12.114Z,22.91
2018-06-28T10:38:12.124Z,22.78
2018-06-28T10:39:12.116Z,22.75
2018-06-28T10:40:12.116Z,22.97
2018-06-28T10:41:12.119Z,23.07
2018-06-28T10:42:12.115Z,23.07
2018-06-28T10:43:12.110Z,23.11
2018-06-28T10:44:12.110Z,23.22
2018-06-28T10:45:12.106Z,23.31
2018-06-28T10:46:12.106Z,23.47
2018-06-28T10:47:12.110Z,23.60
2018-06-28T10:48:12.103Z,23.62
2018-06-28T10:49:12.108Z,23.60
2018-06-28T10:50:12.107Z,23.62
2018-06-28T10:51:12.102Z,23.53
2018-06-28T10:52:12.101Z,23.37
2018-06-28T10:53:12.100Z,23.21
2018-06-28T10:54:12.098Z,23.16
2018-06-28T10:55:12.097Z,23.11
2018-06-28T10:56:12.105Z,22.99
2018-06-28T10:57:12.097Z,22.99
2018-06-28T10:58:12.097Z,22.81
2018-06-28T10:59:12.095Z,22.72
2018-06-28T11:00:12.097Z,22.82
2018-06-28T11:01:12.097Z,22.91
2018-06-28T11:02:12.091Z,22.88
2018-06-28T11:03:12.100Z,22.84
2018-06-28T11:04:12.093Z,22.93
2018-06-28T11:05:12.097Z,22.93
2018-06-28T11:06:12.093Z,22.99
2018-06-28T11:07:12.088Z,22.89
2018-06-28T11:08:12.086Z,22.94
2018-06-28T11:09:12.110Z,23.22
2018-06-28T11:10:12.093Z,23.16
2018-06-28T11:11:12.091Z,23.16
2018-06-28T11:12:12.081Z,23.18
2018-06-28T11:13:12.081Z,23.29
2018-06-28T11:14:12.086Z,23.26
2018-06-28T11:15:12.079Z,23.31
2018-06-28T11:16:12.078Z,23.31
2018-06-28T11:17:12.079Z,23.34
2018-06-28T11:18:12.085Z,23.32
2018-06-28T11:19:12.089Z,23.38
2018-06-28T11:20:12.077Z,23.49
2018-06-28T11:21:12.074Z,23.63
2018-06-28T11:22:12.076Z,23.64
2018-06-28T11:23:12.074Z,23.78
2018-06-28T11:24:12.080Z,23.90
2018-06-28T11:25:12.081Z,24.04
2018-06-28T11:26:12.077Z,23.89
2018-06-28T11:27:12.076Z,23.89
2018-06-28T11:28:12.085Z,23.97
2018-06-28T11:29:12.073Z,24.12
2018-06-28T11:30:12.071Z,24.24
2018-06-28T11:31:12.070Z,24.19
2018-06-28T11:32:12.068Z,24.15
2018-06-28T11:33:12.073Z,24.04
2018-06-28T11:34:12.194Z,24.06
2018-06-28T11:35:12.082Z,24.09
2018-06-28T11:36:12.098Z,24.12
2018-06-28T11:37:12.067Z,24.15
2018-06-28T11:38:12.076Z,24.19
2018-06-28T11:39:12.073Z,24.15
2018-06-28T11:40:12.079Z,24.12
2018-06-28T11:41:12.068Z,24.33
2018-06-28T11:42:12.076Z,24.45
2018-06-28T11:43:12.067Z,24.49
2018-06-28T11:44:12.143Z,24.41
2018-06-28T11:45:12.068Z,24.31
2018-06-28T11:46:12.074Z,24.21
2018-06-28T11:47:12.073Z,24.16
2018-06-28T11:48:12.077Z,24.19
2018-06-28T11:49:12.081Z,24.11
2018-06-28T11:50:12.076Z,24.34
2018-06-28T11:51:12.070Z,24.24
2018-06-28T11:52:12.094Z,24.18
2018-06-28T11:53:12.070Z,24.19
2018-06-28T11:54:12.076Z,24.26
2018-06-28T11:55:12.069Z,24.37
2018-06-28T11:56:12.071Z,24.41
2018-06-28T11:57:12.070Z,24.55
2018-06-28T11:58:12.069Z,24.53
2018-06-28T11:59:12.071Z,24.75
2018-06-28T12:00:12.074Z,24.53
2018-06-28T12:01:12.070Z,24.63
2018-06-28T12:02:12.078Z,24.53
2018-06-28T12:03:12.074Z,24.60
2018-06-28T12:04:12.086Z,24.37
2018-06-28T12:05:12.100Z,24.36
2018-06-28T12:06:12.075Z,24.12
2018-06-28T12:07:12.087Z,24.06
2018-06-28T12:08:12.076Z,23.79
2018-06-28T12:09:12.081Z,23.67
2018-06-28T12:10:12.084Z,23.64
2018-06-28T12:11:12.091Z,23.64
2018-06-28T12:12:12.075Z,23.68
2018-06-28T12:13:12.076Z,23.45
2018-06-28T12:14:12.084Z,23.47
2018-06-28T12:15:12.079Z,23.44
2018-06-28T12:16:12.076Z,23.47
2018-06-28T12:17:12.076Z,23.52
2018-06-28T12:18:12.077Z,23.50
2018-06-28T12:19:12.085Z,23.44
2018-06-28T12:20:12.076Z,23.54
2018-06-28T12:21:12.088Z,23.64
2018-06-28T12:22:12.079Z,23.49
2018-06-28T12:23:12.090Z,23.62
2018-06-28T12:24:12.075Z,23.69
2018-06-28T12:25:12.080Z,23.64
2018-06-28T12:26:12.077Z,23.56
2018-06-28T12:27:12.075Z,23.63
2018-06-28T12:28:12.082Z,23.72
2018-06-28T12:29:12.085Z,23.75
2018-06-28T12:30:12.077Z,23.75
2018-06-28T12:31:12.113Z,23.79
2018-06-28T12:32:12.082Z,23.74
2018-06-28T12:33:12.083Z,23.49
2018-06-28T12:34:12.076Z,23.35
2018-06-28T12:35:12.084Z,23.25
2018-06-28T12:36:12.073Z,23.14
2018-06-28T12:37:12.089Z,23.09
2018-06-28T12:38:12.075Z,22.96
2018-06-28T12:39:12.086Z,23.01
2018-06-28T12:40:12.072Z,23.11
2018-06-28T12:41:12.082Z,23.12
2018-06-28T12:42:12.078Z,23.06
2018-06-28T12:43:12.085Z,23.07
2018-06-28T12:44:12.081Z,23.00
2018-06-28T12:45:12.074Z,23.00
2018-06-28T12:46:12.096Z,22.93
2018-06-28T12:47:12.070Z,22.78
2018-06-28T12:48:12.069Z,22.72
2018-06-28T12:49:12.069Z,22.79
2018-06-28T12:50:12.070Z,22.66
2018-06-28T12:51:12.069Z,22.69
2018-06-28T12:52:12.071Z,22.74